チュニス の空港の天気 - METARとTAF

チュニス・カルタゴ国際空港 ( DTTA / TUN ) - チュニジア チュニス
飛行場実況気象(Metar)
観測時間04/26 12:00 CET (04/26 11:00 UTC)
風向・風速東 4m/s
視程10km以上
天気現象
少しの雲 雲底高度 790m
気温25℃
湿度44%
気圧1011hPa
METARDTTA 261100Z 10008KT 040V140 9999 FEW026 25/12 Q1011 NOSIG
過去の天気等 Google飛行場航空写真 Wunderground天気予報

過去48時間のMETAR

飛行場予報(TAF)
発表時間: 4/26 06:00 CET (4/26 05:00 UTC)
予報対象時間: 26日7時 CET ~ 27日7時 CET
風向・風速東 5m/s
視程10km以上
少しの雲 雲底高度 790m
26日13時 CET ~ 26日16時 CET に 確率 30% で一時的に
天気現象弱い雨
全天の4割程度の塔状積雲 雲底高度 790m
26日23時 CET ~ 27日7時 CET に 確率 30% で一時的に
天気現象弱い雷雨
全天の4割程度の積乱雲 雲底高度 790m
TAF DTTA 260500Z 2606/2706 09010KT 9999 FEW026
PROB30 TEMPO 2612/2615 -RA SCT026TCU
PROB30 TEMPO 2622/2706 -TSRA SCT026CB